Time;durP1;ratioP1;P1;durP2;ratioP2;P2;SDS_P1;SDS_P2;PMS_P1;PMS_P2;Temp;Humidity;BMP_temperature;BMP_pressure;BME280_temperature;BME280_humidity;BME280_pressure;Samples;Min_cycle;Max_cycle;Signal;HPM_P1;HPM_P2
2023/03/05 00:01:24;;;;;;;16.20;9.02;;;;;;;19.60;48.63;100878.66;5033027;28;20052;-48
2023/03/05 00:03:53;;;;;;;11.90;8.60;;;;;;;19.62;50.43;100884.78;5033517;28;20057;-45
2023/03/05 00:06:23;;;;;;;11.75;8.68;;;;;;;19.62;50.02;100882.09;5033511;28;20052;-46
2023/03/05 00:08:52;;;;;;;11.00;8.43;;;;;;;19.61;50.28;100877.72;5033965;28;20049;-46
2023/03/05 00:11:20;;;;;;;13.77;8.48;;;;;;;19.59;50.90;100882.31;5037540;28;20045;-46
2023/03/05 00:13:50;;;;;;;11.18;7.97;;;;;;;19.60;50.76;100894.75;5037446;28;20072;-49
2023/03/05 00:16:19;;;;;;;12.07;8.35;;;;;;;19.58;50.54;100891.38;5038235;28;20057;-49
2023/03/05 00:18:47;;;;;;;10.52;7.65;;;;;;;19.57;50.76;100891.47;5036980;28;20049;-48
2023/03/05 00:21:17;;;;;;;12.85;8.65;;;;;;;19.57;50.92;100889.69;5037025;28;20048;-49
2023/03/05 00:23:44;;;;;;;12.50;8.50;;;;;;;19.55;50.67;100888.94;5037743;28;20065;-49
2023/03/05 00:26:11;;;;;;;11.25;7.97;;;;;;;19.56;50.50;100879.88;5037033;28;20053;-49
2023/03/05 00:28:40;;;;;;;12.93;8.52;;;;;;;19.56;50.72;100881.72;5037544;28;20392;-48
2023/03/05 00:31:07;;;;;;;9.63;8.00;;;;;;;19.55;50.89;100880.88;5036953;28;20046;-48
2023/03/05 00:33:34;;;;;;;11.35;7.65;;;;;;;19.56;50.60;100884.41;5037019;28;20053;-46
2023/03/05 00:36:05;;;;;;;10.52;8.02;;;;;;;19.55;50.47;100880.88;5035888;28;20049;-47
2023/03/05 00:38:33;;;;;;;10.45;7.68;;;;;;;19.56;50.45;100876.34;5036924;28;20072;-49
2023/03/05 00:41:01;;;;;;;9.85;7.72;;;;;;;19.55;50.40;100886.25;5037638;28;20065;-47
2023/03/05 00:43:28;;;;;;;11.00;7.28;;;;;;;19.55;50.10;100877.34;5036853;28;20053;-45
2023/03/05 00:45:56;;;;;;;10.45;7.32;;;;;;;19.54;50.00;100879.19;5036991;28;20364;-48
2023/03/05 00:48:24;;;;;;;11.00;7.80;;;;;;;19.54;49.77;100879.19;5036964;28;20050;-45
2023/03/05 00:50:51;;;;;;;10.82;7.63;;;;;;;19.54;49.93;100870.28;5036752;28;20056;-51
2023/03/05 00:53:19;;;;;;;8.63;7.72;;;;;;;19.52;49.62;100871.25;5035736;28;20053;-47
2023/03/05 00:55:46;;;;;;;11.52;8.38;;;;;;;19.54;49.67;100864.91;5039031;28;20061;-46
2023/03/05 00:58:14;;;;;;;12.25;7.22;;;;;;;19.54;49.61;100865.75;5036410;28;20056;-47
2023/03/05 01:00:41;;;;;;;12.00;7.18;;;;;;;19.53;49.19;100864.06;5036302;28;20041;-47
2023/03/05 01:03:08;;;;;;;8.93;7.55;;;;;;;19.52;49.46;100851.59;5036417;28;20499;-47
2023/03/05 01:05:36;;;;;;;11.63;8.90;;;;;;;19.51;48.94;100848.06;5036932;28;20068;-45
2023/03/05 01:08:04;;;;;;;11.77;8.15;;;;;;;19.52;49.17;100846.22;5035518;28;20050;-46
2023/03/05 01:10:31;;;;;;;10.95;7.90;;;;;;;19.51;48.78;100850.75;5035186;28;20053;-45
2023/03/05 01:12:58;;;;;;;9.82;8.13;;;;;;;19.52;48.38;100848.91;5035388;28;20510;-45
2023/03/05 01:15:26;;;;;;;9.77;6.90;;;;;;;19.52;48.48;100846.22;5036287;28;20045;-48
2023/03/05 01:17:53;;;;;;;9.95;7.20;;;;;;;19.51;48.73;100845.38;5036098;28;20046;-47
2023/03/05 01:20:21;;;;;;;11.85;7.78;;;;;;;19.52;48.47;100838.19;5034006;28;20061;-48
2023/03/05 01:22:49;;;;;;;10.23;7.53;;;;;;;19.50;48.53;100832.94;5034823;28;20061;-47
2023/03/05 01:25:17;;;;;;;10.82;7.85;;;;;;;19.51;48.38;100833.78;5035934;28;20535;-46
2023/03/05 01:27:44;;;;;;;8.77;7.32;;;;;;;19.51;48.18;100833.78;5036217;28;20045;-46
2023/03/05 01:30:14;;;;;;;11.82;7.75;;;;;;;19.50;48.26;100816.84;5036687;28;20053;-45
2023/03/05 01:32:41;;;;;;;11.85;7.43;;;;;;;19.50;48.31;100816.84;5035896;28;20262;-46
2023/03/05 01:35:14;;;;;;;7.68;6.88;;;;;;;19.50;48.21;100819.53;5035783;28;20049;-48
2023/03/05 01:37:41;;;;;;;10.70;7.35;;;;;;;19.49;48.02;100817.00;5035500;28;20404;-47
2023/03/05 01:40:11;;;;;;;8.63;6.68;;;;;;;19.49;47.98;100815.16;5035457;28;20404;-46
2023/03/05 01:42:38;;;;;;;9.75;7.70;;;;;;;19.49;47.91;100808.94;5034464;28;20526;-47
2023/03/05 01:45:12;;;;;;;10.60;7.35;;;;;;;19.48;47.91;100813.41;5034259;28;20057;-47
2023/03/05 01:47:39;;;;;;;10.45;6.88;;;;;;;19.48;48.11;100808.06;5035589;28;20408;-48
2023/03/05 01:50:13;;;;;;;10.18;7.47;;;;;;;19.48;47.64;100808.06;5035786;28;20111;-46
2023/03/05 01:52:43;;;;;;;10.38;7.13;;;;;;;19.49;47.96;100808.94;5036296;28;20073;-47
2023/03/05 01:55:15;;;;;;;8.07;6.80;;;;;;;19.48;47.96;100800.00;5035566;28;20049;-46
2023/03/05 01:57:47;;;;;;;9.95;7.80;;;;;;;19.49;47.99;100803.56;5034389;28;20049;-49
2023/03/05 02:00:43;;;;;;;11.05;7.90;;;;;;;19.48;47.70;100801.84;5035482;28;20464;-47
2023/03/05 02:03:12;;;;;;;9.35;7.10;;;;;;;19.48;47.63;100804.53;5035195;28;20057;-46
2023/03/05 02:05:43;;;;;;;8.57;7.22;;;;;;;19.48;47.47;100801.84;5035510;28;20049;-46
2023/03/05 02:08:16;;;;;;;10.77;8.07;;;;;;;19.48;47.42;100799.16;5035309;28;20052;-49
2023/03/05 02:10:50;;;;;;;9.80;7.68;;;;;;;19.47;47.63;100797.47;5035832;28;20053;-45
2023/03/05 02:13:21;;;;;;;9.07;7.32;;;;;;;19.47;47.33;100789.41;5035584;28;20046;-45
2023/03/05 02:15:51;;;;;;;8.35;7.28;;;;;;;19.47;47.50;100798.31;5035224;28;20056;-48
2023/03/05 02:18:22;;;;;;;10.30;7.30;;;;;;;19.47;47.35;100798.31;5034340;28;20415;-46
2023/03/05 02:20:55;;;;;;;10.80;7.03;;;;;;;19.48;47.49;100793.78;5033896;28;20049;-45
2023/03/05 02:23:26;;;;;;;8.68;7.45;;;;;;;19.48;47.35;100799.16;5034656;28;20065;-46
2023/03/05 02:25:55;;;;;;;11.95;7.50;;;;;;;19.47;47.39;100794.78;5034813;28;20046;-45
2023/03/05 02:28:27;;;;;;;8.90;7.05;;;;;;;19.47;47.42;100789.41;5035134;28;20052;-45
2023/03/05 02:30:54;;;;;;;8.30;7.30;;;;;;;19.48;47.37;100793.78;5034737;28;20045;-47
2023/03/05 02:33:22;;;;;;;9.27;7.03;;;;;;;19.47;47.36;100794.78;5034521;28;20048;-48
2023/03/05 02:35:50;;;;;;;10.52;7.72;;;;;;;19.46;47.41;100785.88;5034153;28;20053;-47
2023/03/05 02:38:19;;;;;;;10.00;8.10;;;;;;;19.46;47.44;100790.41;5033352;28;20053;-48
2023/03/05 02:40:47;;;;;;;8.68;6.70;;;;;;;19.46;47.41;100790.41;5033242;28;20054;-48
2023/03/05 02:43:16;;;;;;;9.18;7.65;;;;;;;19.46;47.24;100791.25;5033268;28;20049;-49
2023/03/05 02:45:44;;;;;;;9.23;7.53;;;;;;;19.47;47.26;100784.03;5035002;28;20503;-47
2023/03/05 02:48:11;;;;;;;11.63;7.72;;;;;;;19.46;47.14;100782.34;5034528;28;20479;-47
2023/03/05 02:50:40;;;;;;;9.45;6.47;;;;;;;19.46;47.33;100780.50;5034591;28;20389;-51
2023/03/05 02:53:07;;;;;;;9.05;6.78;;;;;;;19.46;47.05;100783.19;5033137;28;20393;-47
2023/03/05 02:55:36;;;;;;;9.52;6.45;;;;;;;19.45;47.21;100777.97;5033586;28;20376;-46
2023/03/05 02:58:04;;;;;;;10.32;6.63;;;;;;;19.45;47.01;100778.81;5033112;28;20468;-48
2023/03/05 03:00:32;;;;;;;9.18;7.18;;;;;;;19.46;46.99;100785.03;5034346;28;20407;-45
2023/03/05 03:02:59;;;;;;;11.18;6.78;;;;;;;19.44;46.93;100782.47;5033019;28;20064;-45
2023/03/05 03:05:26;;;;;;;11.85;7.13;;;;;;;19.44;47.00;100779.78;5034331;28;20052;-47
2023/03/05 03:07:54;;;;;;;8.23;6.63;;;;;;;19.44;46.89;100784.28;5034619;28;20049;-47
2023/03/05 03:10:21;;;;;;;10.27;6.30;;;;;;;19.44;46.84;100782.47;5034198;28;20056;-46
2023/03/05 03:12:49;;;;;;;9.25;6.68;;;;;;;19.43;46.65;100778.06;5034083;28;20049;-46
2023/03/05 03:15:17;;;;;;;7.78;6.63;;;;;;;19.44;46.75;100778.94;5034319;28;20050;-47
2023/03/05 03:17:44;;;;;;;9.00;6.95;;;;;;;19.44;46.71;100777.09;5033857;28;20492;-46
2023/03/05 03:20:15;;;;;;;10.02;6.95;;;;;;;19.43;46.74;100778.06;5034123;28;20396;-46
2023/03/05 03:22:44;;;;;;;8.70;6.50;;;;;;;19.43;46.61;100783.44;5033544;28;20053;-47
2023/03/05 03:25:20;;;;;;;9.13;7.45;;;;;;;19.42;46.70;100775.53;5034026;28;20052;-47
2023/03/05 03:27:51;;;;;;;11.07;7.60;;;;;;;19.43;46.59;100780.75;5033755;28;20038;-48
2023/03/05 03:30:18;;;;;;;10.27;7.10;;;;;;;19.43;46.53;100775.41;5033912;28;20465;-47
2023/03/05 03:32:46;;;;;;;10.20;7.20;;;;;;;19.42;46.57;100772.84;5033815;28;20057;-46
2023/03/05 03:35:13;;;;;;;9.52;6.68;;;;;;;19.42;46.33;100776.38;5033814;28;20049;-47
2023/03/05 03:37:40;;;;;;;10.68;7.10;;;;;;;19.42;46.38;100783.59;5033576;28;20041;-45
2023/03/05 03:40:08;;;;;;;9.18;7.22;;;;;;;19.42;46.53;100787.13;5033659;28;20045;-46
2023/03/05 03:42:35;;;;;;;9.90;6.97;;;;;;;19.42;46.57;100786.28;5033660;28;20051;-45
2023/03/05 03:45:03;;;;;;;8.20;6.88;;;;;;;19.42;46.42;100786.28;5033351;28;20037;-46
2023/03/05 03:47:31;;;;;;;8.93;6.70;;;;;;;19.41;46.61;100784.59;5033566;28;20045;-47
2023/03/05 03:49:58;;;;;;;10.55;6.78;;;;;;;19.42;46.71;100791.66;5033719;28;20365;-47
2023/03/05 03:52:25;;;;;;;8.60;6.47;;;;;;;19.39;46.27;100790.06;5033564;28;20041;-47
2023/03/05 03:54:54;;;;;;;8.60;7.13;;;;;;;19.42;46.40;100791.66;5033827;28;20046;-49
2023/03/05 03:57:21;;;;;;;11.55;6.80;;;;;;;19.41;46.54;100784.59;5033592;28;20049;-46
2023/03/05 03:59:49;;;;;;;7.50;5.95;;;;;;;19.41;46.81;100785.44;5033665;28;20045;-46
2023/03/05 04:02:17;;;;;;;11.93;6.65;;;;;;;19.41;47.08;100779.22;5033411;28;20387;-46
2023/03/05 04:04:44;;;;;;;7.47;6.25;;;;;;;19.41;46.64;100782.75;5033606;28;20057;-46
2023/03/05 04:07:11;;;;;;;9.68;6.85;;;;;;;19.40;46.58;100783.72;5033920;28;20056;-45
2023/03/05 04:09:39;;;;;;;10.07;6.57;;;;;;;19.40;46.86;100786.38;5033407;28;20056;-46
2023/03/05 04:12:06;;;;;;;8.82;7.03;;;;;;;19.40;46.92;100786.38;5033393;28;20049;-45
2023/03/05 04:14:34;;;;;;;9.15;7.03;;;;;;;19.40;46.77;100794.44;5033404;28;20045;-47
2023/03/05 04:17:02;;;;;;;9.88;6.85;;;;;;;19.41;46.71;100793.50;5033225;28;20037;-48
2023/03/05 04:19:29;;;;;;;10.18;6.60;;;;;;;19.40;46.54;100788.22;5033165;28;20061;-46
2023/03/05 04:21:57;;;;;;;8.95;6.43;;;;;;;19.39;46.91;100782.00;5033031;28;20041;-47
2023/03/05 04:24:25;;;;;;;7.80;6.13;;;;;;;19.40;46.94;100782.84;5033241;28;20464;-47
2023/03/05 04:26:52;;;;;;;10.20;6.85;;;;;;;19.39;46.69;100778.47;5033208;28;20113;-49
2023/03/05 04:29:20;;;;;;;10.55;6.60;;;;;;;19.39;46.67;100776.66;5033219;28;20041;-46
2023/03/05 04:31:47;;;;;;;11.90;6.60;;;;;;;19.39;46.68;100773.97;5033670;28;20046;-46
2023/03/05 04:34:14;;;;;;;8.07;6.30;;;;;;;19.39;46.77;100773.13;5033676;28;20073;-47
2023/03/05 04:36:41;;;;;;;8.68;6.65;;;;;;;19.39;47.00;100776.66;5033050;28;20518;-46
2023/03/05 04:39:09;;;;;;;7.82;6.07;;;;;;;19.39;46.87;100765.06;5032970;28;20041;-47
2023/03/05 04:41:36;;;;;;;9.00;6.55;;;;;;;19.38;46.78;100764.22;5033086;28;20506;-47
2023/03/05 04:44:04;;;;;;;9.88;6.22;;;;;;;19.39;47.00;100762.38;5033100;28;20056;-46
2023/03/05 04:46:31;;;;;;;9.73;6.03;;;;;;;19.38;46.65;100758.00;5033265;28;20041;-45
2023/03/05 04:48:59;;;;;;;11.25;7.38;;;;;;;19.38;46.74;100760.69;5032908;28;20056;-45
2023/03/05 04:51:26;;;;;;;11.45;6.50;;;;;;;19.39;46.69;100759.69;5033036;28;20052;-48
2023/03/05 04:53:53;;;;;;;9.63;6.25;;;;;;;19.37;46.82;100762.53;5033078;28;20045;-48
2023/03/05 04:56:20;;;;;;;7.88;6.35;;;;;;;19.36;46.73;100762.63;5035701;28;20411;-47
2023/03/05 04:58:48;;;;;;;9.20;6.43;;;;;;;19.36;46.58;100759.94;5036499;28;20396;-46
2023/03/05 05:01:15;;;;;;;8.82;6.30;;;;;;;19.35;46.57;100759.09;5036214;28;20076;-47
2023/03/05 05:03:42;;;;;;;8.30;5.85;;;;;;;19.35;46.28;100756.41;5036253;28;20480;-46
2023/03/05 05:06:10;;;;;;;9.93;6.00;;;;;;;19.35;46.42;100759.09;5036714;28;20045;-49
2023/03/05 05:08:37;;;;;;;9.13;6.03;;;;;;;19.34;46.52;100745.84;5036358;28;20053;-46
2023/03/05 05:11:06;;;;;;;8.63;6.22;;;;;;;19.36;46.38;100755.44;5036533;28;20053;-46
2023/03/05 05:13:34;;;;;;;10.27;6.63;;;;;;;19.34;46.35;100757.41;5036538;28;20049;-46
2023/03/05 05:16:05;;;;;;;8.45;6.10;;;;;;;19.35;46.29;100758.25;5036325;28;20045;-46
2023/03/05 05:18:32;;;;;;;9.50;6.40;;;;;;;19.34;46.51;100762.78;5036147;28;20407;-45
2023/03/05 05:21:00;;;;;;;9.27;5.88;;;;;;;19.34;46.28;100754.72;5036175;28;20425;-45
2023/03/05 05:23:27;;;;;;;10.38;6.43;;;;;;;19.35;46.23;100752.88;5036249;28;20053;-48
2023/03/05 05:26:01;;;;;;;8.95;5.93;;;;;;;19.35;46.00;100751.06;5035984;28;20050;-46
2023/03/05 05:28:28;;;;;;;10.20;5.88;;;;;;;19.34;45.75;100754.72;5035913;28;20042;-46
2023/03/05 05:30:56;;;;;;;9.73;6.40;;;;;;;19.35;45.74;100751.06;5036038;28;20496;-46
2023/03/05 05:33:24;;;;;;;9.32;6.07;;;;;;;19.35;45.72;100747.53;5034838;28;20484;-48
2023/03/05 05:35:51;;;;;;;9.65;6.43;;;;;;;19.35;45.67;100750.19;5035980;28;20045;-46
2023/03/05 05:38:19;;;;;;;12.55;7.72;;;;;;;19.35;45.69;100752.88;5035730;28;20064;-46
2023/03/05 05:40:46;;;;;;;7.57;6.22;;;;;;;19.34;45.65;100753.88;5035839;28;20049;-45
2023/03/05 05:43:13;;;;;;;13.27;6.55;;;;;;;19.34;45.66;100753.88;5035756;28;20048;-46
2023/03/05 05:45:41;;;;;;;8.30;6.60;;;;;;;19.33;45.69;100749.50;5035714;28;20049;-50
2023/03/05 05:48:08;;;;;;;11.43;6.63;;;;;;;19.34;45.55;100751.19;5035633;28;20376;-46
2023/03/05 05:50:37;;;;;;;7.40;5.75;;;;;;;19.32;45.43;100748.63;5035616;28;20050;-47
2023/03/05 05:53:04;;;;;;;9.02;6.30;;;;;;;19.33;45.46;100749.50;5035467;28;20514;-46
2023/03/05 05:55:32;;;;;;;7.55;5.90;;;;;;;19.33;45.70;100754.88;5035519;28;20052;-45
2023/03/05 05:57:59;;;;;;;11.30;6.80;;;;;;;19.32;44.33;100747.78;5035311;28;20052;-46
2023/03/05 06:00:26;;;;;;;9.65;6.60;;;;;;;19.31;45.07;100746.09;5035311;28;20045;-47
2023/03/05 06:02:53;;;;;;;9.38;6.00;;;;;;;19.31;45.61;100749.63;5035325;28;20046;-47
2023/03/05 06:05:21;;;;;;;9.00;6.60;;;;;;;19.30;45.59;100745.25;5035283;28;20048;-46
2023/03/05 06:07:48;;;;;;;8.55;6.10;;;;;;;19.30;45.45;100753.28;5034542;28;20056;-48
2023/03/05 06:10:16;;;;;;;7.60;6.18;;;;;;;19.31;45.15;100759.50;5035112;28;20113;-49
2023/03/05 06:12:43;;;;;;;9.38;6.00;;;;;;;19.31;45.18;100756.81;5035888;28;20431;-50
2023/03/05 06:15:11;;;;;;;8.25;6.53;;;;;;;19.31;45.17;100763.03;5035192;28;20052;-46
2023/03/05 06:17:38;;;;;;;12.02;6.07;;;;;;;19.31;45.05;100754.16;5035926;28;20056;-47
2023/03/05 06:20:06;;;;;;;9.95;6.22;;;;;;;19.31;45.02;100762.19;5034967;28;20064;-47
2023/03/05 06:22:37;;;;;;;8.38;5.90;;;;;;;19.31;44.95;100759.50;5034980;28;20060;-48
2023/03/05 06:25:07;;;;;;;7.65;5.75;;;;;;;19.31;44.90;100764.88;5035033;28;20056;-47
2023/03/05 06:27:35;;;;;;;9.05;6.20;;;;;;;19.32;44.78;100769.25;5034913;28;20049;-47
2023/03/05 06:30:04;;;;;;;7.82;5.40;;;;;;;19.33;44.97;100773.66;5034790;28;20037;-46
2023/03/05 06:32:31;;;;;;;7.15;5.25;;;;;;;19.33;44.95;100779.03;5034857;28;20049;-48
2023/03/05 06:34:59;;;;;;;7.50;6.03;;;;;;;19.33;44.64;100773.66;5035271;28;20049;-46
2023/03/05 06:37:26;;;;;;;8.30;5.68;;;;;;;19.34;44.69;100783.41;5034804;28;20053;-47
2023/03/05 06:39:53;;;;;;;8.63;4.82;;;;;;;19.35;44.43;100785.09;5034748;28;20484;-47
2023/03/05 06:42:20;;;;;;;9.65;5.88;;;;;;;19.34;44.01;100772.66;5034607;28;20053;-47
2023/03/05 06:44:48;;;;;;;7.78;5.30;;;;;;;19.35;43.89;100782.41;5034666;28;20057;-48
2023/03/05 06:47:15;;;;;;;7.32;5.82;;;;;;;19.35;43.57;100780.59;5034615;28;20041;-48
2023/03/05 06:49:42;;;;;;;8.32;5.80;;;;;;;19.36;43.27;100776.06;5034465;28;20404;-48
2023/03/05 06:52:11;;;;;;;9.77;6.10;;;;;;;19.36;43.25;100782.28;5034419;28;20431;-48
2023/03/05 06:54:39;;;;;;;13.77;6.50;;;;;;;19.37;43.14;100778.63;5034307;28;20053;-47
2023/03/05 06:57:06;;;;;;;7.03;5.30;;;;;;;19.39;43.23;100784.69;5033319;28;20056;-46
2023/03/05 06:59:33;;;;;;;7.35;5.13;;;;;;;19.40;43.18;100785.53;5034104;28;20487;-46
2023/03/05 07:02:00;;;;;;;8.20;5.65;;;;;;;19.40;43.16;100788.22;5035261;28;20046;-46
2023/03/05 07:04:28;;;;;;;8.60;5.68;;;;;;;19.41;43.12;100784.59;5034143;28;20049;-47
2023/03/05 07:06:56;;;;;;;10.07;6.35;;;;;;;19.41;43.15;100779.22;5034209;28;20048;-47
2023/03/05 07:09:23;;;;;;;9.93;5.90;;;;;;;19.41;43.08;100785.44;5034145;28;20423;-47
2023/03/05 07:11:51;;;;;;;8.70;6.32;;;;;;;19.42;43.01;100786.28;5034050;28;20045;-46
2023/03/05 07:14:18;;;;;;;10.05;5.88;;;;;;;19.41;42.85;100782.75;5034014;28;20045;-49
2023/03/05 07:16:45;;;;;;;8.73;6.20;;;;;;;19.43;43.10;100786.13;5033695;28;20054;-47
2023/03/05 07:19:13;;;;;;;8.27;5.55;;;;;;;19.43;42.99;100787.97;5033162;28;20412;-48
2023/03/05 07:21:40;;;;;;;11.02;6.53;;;;;;;19.44;42.96;100789.66;5033995;28;20407;-48
2023/03/05 07:24:08;;;;;;;8.48;5.70;;;;;;;19.44;42.78;100785.13;5033920;28;20411;-47
2023/03/05 07:26:35;;;;;;;7.95;5.35;;;;;;;19.45;42.60;100786.88;5033924;28;20052;-46
2023/03/05 07:29:03;;;;;;;8.68;6.32;;;;;;;19.45;42.84;100780.66;5033748;28;20041;-46
2023/03/05 07:31:30;;;;;;;7.63;6.10;;;;;;;19.45;42.41;100780.66;5033801;28;20056;-46
2023/03/05 07:34:00;;;;;;;6.85;5.32;;;;;;;19.46;42.54;100782.34;5032998;28;20049;-47
2023/03/05 07:36:29;;;;;;;8.25;5.88;;;;;;;19.46;42.51;100782.34;5033876;28;20052;-46
2023/03/05 07:38:56;;;;;;;10.35;6.22;;;;;;;19.47;43.49;100792.09;5033554;28;20046;-45
2023/03/05 07:41:24;;;;;;;10.57;6.30;;;;;;;19.46;42.98;100793.94;5033622;28;20045;-46
2023/03/05 07:43:53;;;;;;;7.28;5.30;;;;;;;19.47;42.74;100784.88;5033745;28;20053;-46
2023/03/05 07:46:24;;;;;;;9.15;6.35;;;;;;;19.47;42.59;100782.19;5033573;28;20045;-48
2023/03/05 07:48:53;;;;;;;9.07;5.85;;;;;;;19.47;42.70;100782.19;5033597;28;20417;-46
2023/03/05 07:51:23;;;;;;;7.03;5.75;;;;;;;19.47;42.72;100786.72;5033542;28;20400;-46
2023/03/05 07:53:52;;;;;;;7.88;6.32;;;;;;;19.48;42.89;100791.94;5033691;28;20056;-45
2023/03/05 07:56:30;;;;;;;10.50;6.18;;;;;;;19.47;42.83;100790.25;5033264;28;20045;-46
2023/03/05 07:58:59;;;;;;;10.10;5.35;;;;;;;19.46;43.04;100783.19;5033280;28;20053;-47
2023/03/05 08:01:28;;;;;;;9.50;6.10;;;;;;;19.46;42.95;100783.19;5033369;28;20052;-47
2023/03/05 08:03:55;;;;;;;8.38;5.90;;;;;;;19.46;42.98;100788.56;5033478;28;20038;-47
2023/03/05 08:06:23;;;;;;;10.23;6.57;;;;;;;19.46;42.94;100793.09;5033358;28;20050;-46
2023/03/05 08:08:50;;;;;;;6.85;5.68;;;;;;;19.46;43.12;100785.03;5033285;28;20049;-45
2023/03/05 08:11:17;;;;;;;7.43;5.28;;;;;;;19.46;43.28;100785.03;5033246;28;20061;-46
2023/03/05 08:13:45;;;;;;;9.10;5.45;;;;;;;19.45;43.32;100788.72;5033508;28;20056;-47
2023/03/05 08:16:16;;;;;;;7.72;5.53;;;;;;;19.43;43.28;100779.91;5033244;28;20404;-47
2023/03/05 08:18:44;;;;;;;10.35;5.57;;;;;;;19.43;43.17;100785.28;5033324;28;20490;-48
2023/03/05 08:21:20;;;;;;;8.35;5.78;;;;;;;19.43;43.48;100777.22;5033141;28;20061;-46
2023/03/05 08:23:48;;;;;;;8.23;4.70;;;;;;;19.43;43.41;100780.75;5032456;28;20061;-46
2023/03/05 08:26:19;;;;;;;7.25;4.50;;;;;;;19.42;43.38;100771.00;5033094;28;20392;-45
2023/03/05 08:28:47;;;;;;;6.95;4.82;;;;;;;19.43;43.61;100769.19;5033269;28;20045;-45
2023/03/05 08:31:16;;;;;;;7.05;4.25;;;;;;;19.43;43.42;100774.53;5035994;28;20041;-44
2023/03/05 08:33:44;;;;;;;8.40;4.10;;;;;;;19.44;43.55;100774.41;5037093;28;20046;-47
2023/03/05 08:36:12;;;;;;;7.20;4.30;;;;;;;19.45;43.33;100765.38;5036897;28;20052;-45
2023/03/05 08:38:39;;;;;;;6.38;4.78;;;;;;;19.46;44.68;100767.09;5036895;28;20056;-45
2023/03/05 08:41:07;;;;;;;9.15;5.10;;;;;;;19.48;43.06;100764.25;5036551;28;20052;-48
2023/03/05 08:43:34;;;;;;;8.63;4.78;;;;;;;19.50;43.34;100768.50;5037576;28;20056;-46
2023/03/05 08:46:02;;;;;;;9.07;4.95;;;;;;;19.51;43.17;100767.53;5036888;28;20372;-47
2023/03/05 08:48:30;;;;;;;8.48;5.13;;;;;;;19.52;43.31;100760.31;5036845;28;20041;-46
2023/03/05 08:51:05;;;;;;;9.48;4.50;;;;;;;19.53;42.73;100756.66;5036583;28;20045;-46
2023/03/05 08:53:32;;;;;;;5.18;4.30;;;;;;;19.53;42.05;100762.03;5036841;28;20056;-45
2023/03/05 08:56:00;;;;;;;5.75;4.03;;;;;;;19.55;42.47;100753.84;5036396;28;20045;-46
2023/03/05 08:58:27;;;;;;;5.50;4.55;;;;;;;19.56;42.98;100747.47;5036477;28;20050;-45
2023/03/05 09:00:55;;;;;;;7.68;4.80;;;;;;;19.56;42.95;100750.16;5035391;28;20057;-45
2023/03/05 09:03:22;;;;;;;7.10;4.80;;;;;;;19.56;42.86;100753.69;5036388;28;20046;-47
2023/03/05 09:05:51;;;;;;;5.90;3.80;;;;;;;19.58;43.05;100750.88;5036596;28;20050;-46
2023/03/05 09:08:18;;;;;;;5.63;4.05;;;;;;;19.58;43.28;100754.41;5036367;28;20053;-45
2023/03/05 09:10:45;;;;;;;6.40;4.20;;;;;;;19.60;43.24;100749.75;5036265;28;20046;-47
2023/03/05 09:13:13;;;;;;;7.60;4.68;;;;;;;19.60;42.89;100740.84;5036339;28;20042;-49
2023/03/05 09:15:40;;;;;;;7.78;4.35;;;;;;;19.60;42.46;100741.69;5034993;28;20049;-46
2023/03/05 09:18:08;;;;;;;7.43;5.28;;;;;;;19.59;39.11;100739.16;5036235;28;20052;-46
2023/03/05 09:20:35;;;;;;;7.72;5.63;;;;;;;19.52;37.15;100739.69;5036124;28;20049;-46
2023/03/05 09:23:03;;;;;;;9.45;5.97;;;;;;;19.49;38.25;100731.06;5035997;28;20124;-45
2023/03/05 09:25:31;;;;;;;7.63;5.50;;;;;;;19.44;38.44;100734.13;5035970;28;20053;-48
2023/03/05 09:27:58;;;;;;;11.77;5.72;;;;;;;19.43;38.44;100728.91;5035909;28;20064;-46
2023/03/05 09:30:25;;;;;;;7.70;6.25;;;;;;;19.41;38.50;100730.91;5035759;28;20491;-46
2023/03/05 09:32:52;;;;;;;9.50;6.38;;;;;;;19.39;38.09;100727.47;5035713;28;20046;-46
2023/03/05 09:35:20;;;;;;;8.02;6.03;;;;;;;19.36;38.18;100733.09;5035823;28;20041;-48
2023/03/05 09:37:47;;;;;;;8.90;6.15;;;;;;;19.32;38.47;100729.84;5035760;28;20072;-48
2023/03/05 09:40:16;;;;;;;10.25;6.30;;;;;;;19.29;37.67;100729.28;5035706;28;20042;-47
2023/03/05 09:42:49;;;;;;;8.70;6.45;;;;;;;19.26;38.01;100728.56;5034637;28;20056;-47
2023/03/05 09:45:17;;;;;;;;;;;;;;;19.24;37.89;100733.22;5037010;28;20045;-49
2023/03/05 09:47:48;;;;;;;12.07;6.55;;;;;;;19.21;37.84;100725.44;5035645;28;19928;-48
2023/03/05 09:50:31;;;;;;;8.30;5.97;;;;;;;19.20;38.35;100723.75;5035536;28;20046;-46
2023/03/05 09:53:24;;;;;;;13.57;7.60;;;;;;;19.20;39.37;100728.22;5035598;28;20045;-46
2023/03/05 09:55:54;;;;;;;12.55;8.50;;;;;;;19.17;37.71;100721.31;5035548;28;20279;-48
2023/03/05 09:58:32;;;;;;;15.75;7.50;;;;;;;19.12;37.38;100720.00;5035444;28;20476;-45
2023/03/05 10:01:04;;;;;;;10.98;7.20;;;;;;;19.09;37.64;100704.19;5035380;28;20049;-46
2023/03/05 10:03:47;;;;;;;10.90;6.50;;;;;;;19.08;37.77;100708.69;5035429;28;20041;-45
2023/03/05 10:06:25;;;;;;;11.27;7.22;;;;;;;19.07;38.34;100698.94;5035369;28;20068;-49
2023/03/05 10:08:52;;;;;;;13.50;7.07;;;;;;;19.10;38.40;100700.50;5035086;28;20049;-50
2023/03/05 10:11:53;;;;;;;10.02;6.30;;;;;;;19.10;37.62;100698.66;5035209;28;20056;-48
2023/03/05 10:14:23;;;;;;;10.90;7.85;;;;;;;19.12;37.33;100693.16;5035211;28;20049;-51
2023/03/05 10:17:21;;;;;;;14.10;7.35;;;;;;;19.13;37.77;100697.56;5035156;28;20052;-46
2023/03/05 10:19:48;;;;;;;12.90;6.40;;;;;;;19.13;37.25;100690.34;5035131;28;20046;-47
2023/03/05 10:22:27;;;;;;;11.00;6.60;;;;;;;19.15;37.46;100693.75;5034675;28;20046;-58
2023/03/05 10:25:07;;;;;;;10.43;7.25;;;;;;;19.16;37.57;100689.22;5037332;28;20399;-50
2023/03/05 10:27:43;;;;;;;12.93;6.65;;;;;;;19.16;36.99;100687.41;5054230;28;20040;-49
2023/03/05 10:30:16;;;;;;;11.90;6.60;;;;;;;19.17;37.56;100682.91;5054757;28;20049;-51
2023/03/05 10:33:04;;;;;;;8.98;6.20;;;;;;;19.17;37.23;100683.75;5054296;28;20053;-49
2023/03/05 10:35:50;;;;;;;9.70;6.15;;;;;;;19.16;36.81;100665.94;5054815;28;20045;-49
2023/03/05 10:38:36;;;;;;;11.45;6.00;;;;;;;19.16;37.26;100674.00;5054637;28;20045;-48
2023/03/05 10:41:16;;;;;;;8.32;5.95;;;;;;;19.17;37.89;100678.38;5054475;28;20041;-49
2023/03/05 10:44:08;;;;;;;9.88;7.35;;;;;;;19.18;37.79;100677.38;5054651;28;20067;-52
2023/03/05 10:46:38;;;;;;;10.02;6.57;;;;;;;19.20;38.22;100674.56;5054462;28;20041;-49
2023/03/05 10:49:31;;;;;;;7.95;6.10;;;;;;;19.21;38.49;100670.91;5054413;28;20045;-49
2023/03/05 10:52:24;;;;;;;8.52;6.72;;;;;;;19.23;38.28;100669.78;5054455;28;20044;-52
2023/03/05 10:54:51;;;;;;;7.80;5.50;;;;;;;19.22;38.66;100660.03;5054042;28;20060;-56
2023/03/05 10:57:24;;;;;;;8.38;5.97;;;;;;;19.24;38.41;100660.75;5053903;28;20049;-51
2023/03/05 10:59:56;;;;;;;10.02;6.22;;;;;;;19.27;38.91;100651.56;5054079;28;20053;-50
2023/03/05 11:02:23;;;;;;;6.38;4.63;;;;;;;19.29;39.77;100656.81;5054021;28;20052;-50
2023/03/05 11:04:53;;;;;;;5.78;4.07;;;;;;;19.31;40.12;100644.94;5053993;28;20053;-50
2023/03/05 11:07:21;;;;;;;7.28;4.32;;;;;;;19.34;40.14;100641.16;5054205;28;20388;-47
2023/03/05 11:10:13;;;;;;;6.32;3.83;;;;;;;19.36;40.19;100647.22;5054318;28;20047;-50
2023/03/05 11:12:41;;;;;;;8.15;3.70;;;;;;;19.38;40.82;100646.09;5052885;28;20410;-46
2023/03/05 11:15:08;;;;;;;6.25;4.38;;;;;;;19.40;40.24;100640.56;5053881;28;20467;-51
2023/03/05 11:18:01;;;;;;;5.63;3.85;;;;;;;19.43;41.03;100629.56;5053923;28;20045;-51
2023/03/05 11:20:31;;;;;;;5.68;4.07;;;;;;;19.43;40.65;100632.25;5053864;28;20041;-49
2023/03/05 11:23:16;;;;;;;6.07;4.07;;;;;;;19.45;40.91;100627.63;5053722;28;20057;-51
2023/03/05 11:26:02;;;;;;;10.02;5.22;;;;;;;19.47;40.83;100617.56;5053791;28;20041;-53
2023/03/05 11:28:54;;;;;;;8.60;5.07;;;;;;;19.47;40.83;100615.75;5053680;28;20395;-49
2023/03/05 11:31:24;;;;;;;7.85;5.13;;;;;;;19.48;41.04;100609.38;5053639;28;20051;-50
2023/03/05 11:33:58;;;;;;;9.95;5.78;;;;;;;19.50;41.16;100606.56;5053988;28;20482;-49